Time;durP1;ratioP1;P1;durP2;ratioP2;P2;SDS_P1;SDS_P2;PMS_P1;PMS_P2;Temp;Humidity;BMP_temperature;BMP_pressure;BME280_temperature;BME280_humidity;BME280_pressure;Samples;Min_cycle;Max_cycle;Signal;HPM_P1;HPM_P2
2023/03/29 00:02:33;;;;;;;2.73;2.33;;;;;;;;;;5030630;28;20184;-85
2023/03/29 00:05:39;;;;;;;4.20;3.00;;;;;;;;;;5031998;28;20176;-85
2023/03/29 00:08:44;;;;;;;5.07;2.83;;;;;;;;;;5020410;28;20220;-85
2023/03/29 00:11:48;;;;;;;4.10;2.97;;;;;;;;;;5042324;28;20184;-85
2023/03/29 00:14:53;;;;;;;6.00;2.83;;;;;;;;;;5030165;28;20568;-85
2023/03/29 00:17:57;;;;;;;5.77;2.50;;;;;;;;;;5042022;28;20672;-85
2023/03/29 00:21:01;;;;;;;5.80;2.67;;;;;;;;;;5029969;28;20188;-84
2023/03/29 00:24:05;;;;;;;5.47;3.17;;;;;;;;;;5030281;28;20180;-85
2023/03/29 00:27:09;;;;;;;3.13;2.43;;;;;;;;;;5041559;28;20223;-85
2023/03/29 00:30:14;;;;;;;3.60;2.50;;;;;;;;;;5018997;28;20184;-84
2023/03/29 00:33:19;;;;;;;5.10;2.93;;;;;;;;;;5041196;28;20224;-85
2023/03/29 00:36:23;;;;;;;4.17;2.60;;;;;;;;;;5030132;28;20192;-85
2023/03/29 00:39:29;;;;;;;3.83;2.80;;;;;;;;;;5018850;28;20525;-85
2023/03/29 00:42:33;;;;;;;5.23;2.83;;;;;;;;;;5018732;28;20184;-85
2023/03/29 00:45:37;;;;;;;3.37;2.67;;;;;;;;;;5029685;28;20196;-84
2023/03/29 00:48:41;;;;;;;3.83;2.90;;;;;;;;;;5018292;28;20235;-85
2023/03/29 00:51:46;;;;;;;3.77;3.13;;;;;;;;;;5041224;28;20180;-85
2023/03/29 00:54:55;;;;;;;5.03;2.90;;;;;;;;;;5029683;28;20564;-85
2023/03/29 00:57:59;;;;;;;5.10;2.90;;;;;;;;;;5018195;28;20219;-85
2023/03/29 01:01:14;;;;;;;4.80;2.90;;;;;;;;;;5029812;28;20185;-84
2023/03/29 01:04:31;;;;;;;4.67;2.97;;;;;;;;;;5029789;28;20537;-85
2023/03/29 01:07:56;;;;;;;7.37;3.37;;;;;;;;;;5029746;28;20219;-85
2023/03/29 01:11:07;;;;;;;4.77;2.90;;;;;;;;;;5029674;28;20184;-85
2023/03/29 01:14:27;;;;;;;3.43;2.60;;;;;;;;;;5029443;28;20211;-85
2023/03/29 01:17:32;;;;;;;4.07;3.00;;;;;;;;;;5018114;28;20219;-85
2023/03/29 01:20:52;;;;;;;10.43;3.20;;;;;;;;;;5029867;28;20172;-85
2023/03/29 01:24:24;;;;;;;4.17;2.83;;;;;;;;;;5022469;28;20184;-85
2023/03/29 01:27:48;;;;;;;5.90;2.70;;;;;;;;;;5033385;28;20223;-85
2023/03/29 01:31:02;;;;;;;4.27;2.70;;;;;;;;;;5022274;28;20184;-85
2023/03/29 01:34:13;;;;;;;2.80;2.17;;;;;;;;;;5044709;28;20211;-85
2023/03/29 01:37:27;;;;;;;2.50;2.03;;;;;;;;;;5056071;28;20223;-85
2023/03/29 01:40:32;;;;;;;3.30;2.07;;;;;;;;;;5044694;28;20525;-85
2023/03/29 01:43:49;;;;;;;1.93;1.50;;;;;;;;;;5055893;28;20184;-85
2023/03/29 01:47:17;;;;;;;1.93;1.50;;;;;;;;;;5022015;28;20215;-85
2023/03/29 01:50:45;;;;;;;2.10;1.47;;;;;;;;;;5032832;28;20184;-85
2023/03/29 01:53:59;;;;;;;1.53;1.43;;;;;;;;;;5032985;28;20673;-85
2023/03/29 01:57:04;;;;;;;1.47;1.20;;;;;;;;;;5044282;28;20216;-85
2023/03/29 02:00:15;;;;;;;1.50;1.30;;;;;;;;;;5044320;28;20192;-85
2023/03/29 02:03:22;;;;;;;5.87;1.50;;;;;;;;;;5047578;28;20204;-85
2023/03/29 02:06:30;;;;;;;1.20;1.10;;;;;;;;;;5044375;28;20524;-85
2023/03/29 02:09:37;;;;;;;2.83;1.37;;;;;;;;;;5032914;28;20629;-85
2023/03/29 02:12:41;;;;;;;1.67;1.20;;;;;;;;;;5032555;28;20637;-85
2023/03/29 02:15:47;;;;;;;1.60;1.47;;;;;;;;;;5043950;28;20208;-85
2023/03/29 02:18:55;;;;;;;1.50;1.40;;;;;;;;;;5032061;28;20220;-85
2023/03/29 02:22:11;;;;;;;1.77;1.53;;;;;;;;;;5032943;28;20180;-85
2023/03/29 02:25:21;;;;;;;1.63;1.33;;;;;;;;;;5032634;28;20192;-85
2023/03/29 02:28:26;;;;;;;1.70;1.33;;;;;;;;;;5043364;28;20220;-86
2023/03/29 02:31:39;;;;;;;2.50;1.50;;;;;;;;;;5032112;28;20200;-85
2023/03/29 02:34:59;;;;;;;2.10;1.60;;;;;;;;;;5055124;28;20212;-85
2023/03/29 02:38:07;;;;;;;1.40;1.20;;;;;;;;;;5032165;28;20220;-85
2023/03/29 02:41:13;;;;;;;2.60;1.70;;;;;;;;;;5032310;28;20180;-85
2023/03/29 02:44:24;;;;;;;1.53;1.40;;;;;;;;;;5032388;28;20180;-85
2023/03/29 02:47:37;;;;;;;2.10;1.50;;;;;;;;;;5031531;28;20704;-85
2023/03/29 02:50:44;;;;;;;3.30;1.50;;;;;;;;;;5020465;28;20188;-85
2023/03/29 02:53:59;;;;;;;2.47;1.40;;;;;;;;;;5031951;28;20196;-85
2023/03/29 02:57:06;;;;;;;2.70;1.57;;;;;;;;;;5031627;28;20220;-85
2023/03/29 03:00:13;;;;;;;2.33;1.90;;;;;;;;;;5020449;28;20184;-85
2023/03/29 03:03:17;;;;;;;2.37;1.90;;;;;;;;;;5020524;28;20184;-85
2023/03/29 03:06:24;;;;;;;3.73;1.87;;;;;;;;;;5031591;28;20176;-85
2023/03/29 03:09:28;;;;;;;1.90;1.70;;;;;;;;;;5031837;28;20188;-85
2023/03/29 03:12:33;;;;;;;3.30;2.20;;;;;;;;;;5031520;28;20184;-85
2023/03/29 03:15:41;;;;;;;2.37;2.00;;;;;;;;;;5031455;28;20207;-85
2023/03/29 03:18:45;;;;;;;5.13;2.00;;;;;;;;;;5031772;28;20215;-85
2023/03/29 03:21:49;;;;;;;2.10;1.80;;;;;;;;;;5031628;28;20188;-85
2023/03/29 03:24:54;;;;;;;2.67;1.97;;;;;;;;;;5020020;28;20177;-85
2023/03/29 03:28:00;;;;;;;2.77;2.20;;;;;;;;;;5020247;28;20215;-85
2023/03/29 03:31:04;;;;;;;2.37;2.07;;;;;;;;;;5031041;28;20196;-85
2023/03/29 03:34:34;;;;;;;3.77;2.03;;;;;;;;;;5042589;28;20558;-85
2023/03/29 03:37:39;;;;;;;4.53;2.10;;;;;;;;;;5031277;28;20220;-85
2023/03/29 03:40:51;;;;;;;3.57;2.50;;;;;;;;;;5042101;28;20188;-85
2023/03/29 03:43:55;;;;;;;2.77;2.27;;;;;;;;;;5019515;28;20184;-85
2023/03/29 03:46:59;;;;;;;3.20;2.80;;;;;;;;;;5019217;28;20223;-85
2023/03/29 03:50:05;;;;;;;3.83;2.40;;;;;;;;;;5030662;28;20629;-85
2023/03/29 03:53:09;;;;;;;3.50;2.80;;;;;;;;;;5031096;28;20617;-85
2023/03/29 03:56:39;;;;;;;6.03;3.30;;;;;;;;;;5024959;28;20552;-85
2023/03/29 04:00:18;;;;;;;4.83;2.70;;;;;;;;;;5026201;28;20192;-85
2023/03/29 04:03:23;;;;;;;3.70;2.50;;;;;;;;;;5030828;28;20180;-85
2023/03/29 04:06:29;;;;;;;2.40;2.07;;;;;;;;;;5030711;28;20621;-84
2023/03/29 04:09:52;;;;;;;2.80;2.60;;;;;;;;;;5033073;28;20189;-84
2023/03/29 04:13:18;;;;;;;3.10;2.67;;;;;;;;;;5030216;28;20192;-85
2023/03/29 04:16:46;;;;;;;3.73;2.50;;;;;;;;;;5033489;28;20177;-85
2023/03/29 04:20:11;;;;;;;2.77;2.47;;;;;;;;;;5033051;28;20188;-85
2023/03/29 04:23:17;;;;;;;3.50;2.40;;;;;;;;;;5030581;28;20192;-85
2023/03/29 04:26:22;;;;;;;3.20;2.50;;;;;;;;;;5030490;28;20184;-85
2023/03/29 04:29:33;;;;;;;3.53;2.50;;;;;;;;;;5031020;28;20188;-85
2023/03/29 04:32:51;;;;;;;3.10;2.00;;;;;;;;;;5021147;28;20184;-85
2023/03/29 04:35:57;;;;;;;3.03;2.30;;;;;;;;;;5031212;28;20228;-85
2023/03/29 04:39:00;;;;;;;6.40;2.50;;;;;;;;;;5029933;28;20188;-85
2023/03/29 04:42:05;;;;;;;3.13;2.47;;;;;;;;;;5041344;28;20494;-85
2023/03/29 04:45:12;;;;;;;3.30;2.40;;;;;;;;;;5041193;28;20195;-85
2023/03/29 04:48:36;;;;;;;4.57;2.30;;;;;;;;;;5030118;28;20224;-85
2023/03/29 04:51:40;;;;;;;2.30;2.03;;;;;;;;;;5030897;28;20180;-84
2023/03/29 04:54:44;;;;;;;3.77;2.57;;;;;;;;;;5030236;28;20212;-84
2023/03/29 04:58:03;;;;;;;4.07;2.37;;;;;;;;;;5030135;28;20216;-84
2023/03/29 05:01:11;;;;;;;2.93;2.17;;;;;;;;;;5030666;28;20180;-84
2023/03/29 05:04:20;;;;;;;3.20;2.13;;;;;;;;;;5030401;28;20188;-84
2023/03/29 05:07:39;;;;;;;3.67;2.10;;;;;;;;;;5030408;28;20227;-84
2023/03/29 05:10:45;;;;;;;3.63;2.57;;;;;;;;;;5018697;28;20184;-84
2023/03/29 05:13:50;;;;;;;3.40;2.23;;;;;;;;;;5041132;28;20204;-84
2023/03/29 05:16:54;;;;;;;2.70;2.30;;;;;;;;;;5018786;28;20692;-84
2023/03/29 05:19:58;;;;;;;2.60;2.00;;;;;;;;;;5018390;28;20195;-84
2023/03/29 05:23:03;;;;;;;2.33;2.00;;;;;;;;;;5030325;28;20177;-84
2023/03/29 05:26:27;;;;;;;4.03;2.33;;;;;;;;;;5041158;28;20192;-84
2023/03/29 05:29:31;;;;;;;3.13;1.80;;;;;;;;;;5041425;28;20180;-84
2023/03/29 05:32:51;;;;;;;6.67;2.40;;;;;;;;;;5029620;28;20180;-84
2023/03/29 05:36:02;;;;;;;3.53;2.00;;;;;;;;;;5018757;28;20211;-84
2023/03/29 05:39:07;;;;;;;4.17;2.00;;;;;;;;;;5040836;28;20521;-84
2023/03/29 05:42:14;;;;;;;2.23;1.70;;;;;;;;;;5029485;28;20529;-84
2023/03/29 05:45:28;;;;;;;4.00;1.87;;;;;;;;;;5040740;28;20180;-84
2023/03/29 05:48:32;;;;;;;2.40;2.00;;;;;;;;;;5029194;28;20231;-84
2023/03/29 05:51:37;;;;;;;2.27;1.73;;;;;;;;;;5029391;28;20184;-85
2023/03/29 05:54:42;;;;;;;2.83;1.80;;;;;;;;;;5019771;28;20184;-85
2023/03/29 05:57:47;;;;;;;2.20;1.47;;;;;;;;;;5040465;28;20561;-84
2023/03/29 06:00:51;;;;;;;3.23;1.97;;;;;;;;;;5018048;28;20200;-84
2023/03/29 06:04:21;;;;;;;1.80;1.70;;;;;;;;;;5040496;28;20188;-84
2023/03/29 06:07:48;;;;;;;2.77;1.80;;;;;;;;;;5036465;28;20227;-84
2023/03/29 06:11:12;;;;;;;3.33;1.67;;;;;;;;;;5044156;28;20185;-84
2023/03/29 06:14:48;;;;;;;2.70;2.00;;;;;;;;;;5025233;28;20200;-84
2023/03/29 06:18:05;;;;;;;1.70;1.60;;;;;;;;;;5032814;28;20223;-85
2023/03/29 06:21:10;;;;;;;2.23;1.57;;;;;;;;;;5021611;28;20180;-84
2023/03/29 06:24:15;;;;;;;2.57;1.67;;;;;;;;;;5032676;28;20192;-84
2023/03/29 06:27:24;;;;;;;2.07;1.30;;;;;;;;;;5032343;28;20216;-84
2023/03/29 06:30:29;;;;;;;1.40;1.23;;;;;;;;;;5043772;28;20652;-84
2023/03/29 06:33:36;;;;;;;1.97;1.70;;;;;;;;;;5043691;28;20184;-85
2023/03/29 06:36:49;;;;;;;2.07;1.40;;;;;;;;;;5032231;28;20577;-85
2023/03/29 06:39:56;;;;;;;1.50;1.23;;;;;;;;;;5032176;28;20653;-85
2023/03/29 06:43:09;;;;;;;3.73;1.30;;;;;;;;;;5022063;28;20181;-83
2023/03/29 06:46:40;;;;;;;2.53;2.03;;;;;;;;;;5055848;28;20620;-84
2023/03/29 06:49:45;;;;;;;3.10;2.27;;;;;;;;;;5043296;28;20176;-83
2023/03/29 06:53:04;;;;;;;11.53;1.80;;;;;;;;;;5045137;28;20201;-84
2023/03/29 06:56:09;;;;;;;6.60;2.03;;;;;;;;;;5043733;28;20228;-84
2023/03/29 06:59:16;;;;;;;5.60;1.73;;;;;;;;;;5055246;28;20541;-84
2023/03/29 07:02:34;;;;;;;7.63;2.40;;;;;;;;;;5044661;28;20185;-84
2023/03/29 07:05:46;;;;;;;7.20;1.50;;;;;;;;;;5032211;28;20180;-84
2023/03/29 07:08:54;;;;;;;1.20;1.10;;;;;;;;;;5031496;28;20219;-85
2023/03/29 07:12:14;;;;;;;1.20;1.03;;;;;;;;;;5043149;28;20184;-88
2023/03/29 07:15:20;;;;;;;3.37;1.37;;;;;;;;;;5033039;28;20673;-84
2023/03/29 07:18:50;;;;;;;25.87;12.93;;;;;;;;;;5023217;28;20227;-84
2023/03/29 07:22:18;;;;;;;2.50;1.83;;;;;;;;;;5022913;28;20549;-84
2023/03/29 07:25:28;;;;;;;2.93;1.43;;;;;;;;;;5021583;28;20172;-84
2023/03/29 07:28:33;;;;;;;2.67;1.43;;;;;;;;;;5042432;28;20227;-84
2023/03/29 07:31:39;;;;;;;1.87;1.30;;;;;;;;;;5030791;28;20200;-84
2023/03/29 07:35:06;;;;;;;3.30;1.70;;;;;;;;;;5048191;28;20530;-84
2023/03/29 07:38:14;;;;;;;2.50;1.40;;;;;;;;;;5020066;28;20220;-84
2023/03/29 07:41:23;;;;;;;4.17;1.63;;;;;;;;;;5031081;28;20188;-85
2023/03/29 07:44:29;;;;;;;5.00;1.70;;;;;;;;;;5053861;28;20199;-85
2023/03/29 07:47:34;;;;;;;2.57;1.30;;;;;;;;;;5032110;28;20219;-85
2023/03/29 07:50:38;;;;;;;23.30;13.90;;;;;;;;;;5031476;28;20180;-85
2023/03/29 07:53:43;;;;;;;3.97;1.47;;;;;;;;;;5031861;28;20187;-85
2023/03/29 07:57:06;;;;;;;1.33;1.17;;;;;;;;;;5034093;28;20235;-85
2023/03/29 08:00:21;;;;;;;1.70;1.17;;;;;;;;;;5030973;28;20184;-85
2023/03/29 08:03:41;;;;;;;5.37;2.83;;;;;;;;;;5022110;28;20193;-85
2023/03/29 08:06:45;;;;;;;8.93;6.53;;;;;;;;;;5031477;28;20184;-85
2023/03/29 08:09:49;;;;;;;2.13;1.90;;;;;;;;;;5042811;28;20184;-85
2023/03/29 08:12:54;;;;;;;3.30;2.10;;;;;;;;;;5031007;28;20188;-85
2023/03/29 08:16:08;;;;;;;6.00;3.70;;;;;;;;;;5031138;28;20546;-84
2023/03/29 08:19:17;;;;;;;4.23;1.90;;;;;;;;;;5020251;28;20538;-84
2023/03/29 08:22:31;;;;;;;3.10;2.27;;;;;;;;;;5042229;28;20192;-84
2023/03/29 08:25:59;;;;;;;1.60;1.50;;;;;;;;;;5026951;28;20195;-84
2023/03/29 08:29:04;;;;;;;1.63;1.27;;;;;;;;;;5030804;28;20276;-85
2023/03/29 08:32:09;;;;;;;4.77;1.33;;;;;;;;;;5029962;28;20518;-85
2023/03/29 08:35:13;;;;;;;1.40;1.20;;;;;;;;;;5029987;28;20200;-85
2023/03/29 08:38:29;;;;;;;3.60;1.30;;;;;;;;;;5030268;28;20224;-85
2023/03/29 08:42:01;;;;;;;3.57;1.60;;;;;;;;;;5041630;28;20200;-85
2023/03/29 08:45:22;;;;;;;2.27;1.10;;;;;;;;;;5053034;28;20526;-85
2023/03/29 08:48:44;;;;;;;3.23;2.00;;;;;;;;;;5052510;28;20240;-85
2023/03/29 08:51:56;;;;;;;4.53;1.50;;;;;;;;;;5030782;28;20192;-85
2023/03/29 08:55:04;;;;;;;5.00;1.97;;;;;;;;;;5030109;28;20180;-84
2023/03/29 08:58:14;;;;;;;60.00;35.40;;;;;;;;;;5041532;28;20215;-85
2023/03/29 09:01:21;;;;;;;4.50;2.93;;;;;;;;;;5018919;28;20679;-85
2023/03/29 09:04:35;;;;;;;3.27;2.97;;;;;;;;;;5041343;28;20184;-85
2023/03/29 09:07:47;;;;;;;4.00;2.73;;;;;;;;;;5051588;28;20216;-85
2023/03/29 09:11:23;;;;;;;3.47;1.87;;;;;;;;;;5030425;28;20180;-85
2023/03/29 09:14:55;;;;;;;2.73;1.40;;;;;;;;;;5018748;28;20630;-85
2023/03/29 09:18:35;;;;;;;4.70;1.73;;;;;;;;;;5041307;28;20708;-85
2023/03/29 09:22:01;;;;;;;2.40;1.67;;;;;;;;;;5029874;28;20200;-85
2023/03/29 09:25:31;;;;;;;8.57;2.30;;;;;;;;;;5019110;28;20188;-84
2023/03/29 09:28:42;;;;;;;3.37;1.50;;;;;;;;;;5030288;28;20220;-85
2023/03/29 09:31:47;;;;;;;5.10;2.97;;;;;;;;;;5030309;28;20204;-84
2023/03/29 09:35:07;;;;;;;2.33;1.83;;;;;;;;;;5041370;28;20188;-84
2023/03/29 09:38:13;;;;;;;2.67;1.40;;;;;;;;;;5030681;28;20212;-84
2023/03/29 09:41:33;;;;;;;3.13;1.40;;;;;;;;;;5031769;28;20185;-84
2023/03/29 09:44:56;;;;;;;7.10;1.60;;;;;;;;;;5035756;28;20192;-84
2023/03/29 09:48:10;;;;;;;9.17;5.03;;;;;;;;;;5034829;28;20223;-85
2023/03/29 09:51:18;;;;;;;5.37;2.70;;;;;;;;;;5024550;28;20188;-85
2023/03/29 09:54:23;;;;;;;2.13;1.10;;;;;;;;;;5034514;28;20514;-84
2023/03/29 09:57:48;;;;;;;2.77;1.10;;;;;;;;;;5061504;23;20232;-85
2023/03/29 10:00:57;;;;;;;7.27;1.90;;;;;;;;;;5013714;28;20188;-80
2023/03/29 10:04:01;;;;;;;5.10;2.53;;;;;;;;;;5013431;28;20181;-85
2023/03/29 10:07:07;;;;;;;4.70;3.47;;;;;;;;;;5013780;28;20181;-85
2023/03/29 10:10:21;;;;;;;5.77;3.90;;;;;;;;;;4994786;28;20182;-85
2023/03/29 10:13:31;;;;;;;3.57;2.10;;;;;;;;;;4993473;28;20646;-85
2023/03/29 10:16:40;;;;;;;8.57;5.73;;;;;;;;;;4983114;28;20221;-85
2023/03/29 10:19:50;;;;;;;12.27;7.03;;;;;;;;;;4993349;28;20229;-87
2023/03/29 10:22:57;;;;;;;4.67;3.90;;;;;;;;;;4982676;28;20218;-86
2023/03/29 10:26:04;;;;;;;2.27;1.20;;;;;;;;;;4983071;28;20538;-86
2023/03/29 10:29:12;;;;;;;2.60;1.10;;;;;;;;;;5004734;28;20217;-86
2023/03/29 10:32:26;;;;;;;2.00;0.90;;;;;;;;;;4982293;28;20186;-86
2023/03/29 10:35:37;;;;;;;1.90;1.10;;;;;;;;;;5004443;28;20186;-85
2023/03/29 10:38:43;;;;;;;2.50;1.20;;;;;;;;;;4992948;28;20213;-86
2023/03/29 10:41:50;;;;;;;1.80;1.20;;;;;;;;;;5004272;28;20190;-85
2023/03/29 10:44:58;;;;;;;4.97;1.07;;;;;;;;;;4981632;28;20523;-86
2023/03/29 10:48:05;;;;;;;1.83;0.97;;;;;;;;;;4992799;28;20217;-86
2023/03/29 10:51:13;;;;;;;2.03;1.30;;;;;;;;;;4992863;28;20182;-86
2023/03/29 10:54:21;;;;;;;4.50;3.03;;;;;;;;;;4981243;28;20182;-86
2023/03/29 10:57:56;;;;;;;7.27;2.77;;;;;;;;;;4981388;28;20213;-85
2023/03/29 11:01:00;;;;;;;3.63;2.30;;;;;;;;;;4992709;28;20186;-86
2023/03/29 11:04:10;;;;;;;5.43;2.97;;;;;;;;;;5003862;28;20201;-86
2023/03/29 11:07:24;;;;;;;2.90;1.53;;;;;;;;;;4992907;28;20630;-86
2023/03/29 11:10:57;;;;;;;5.07;1.80;;;;;;;;;;4992660;28;20519;-86
2023/03/29 11:14:22;;;;;;;5.30;1.50;;;;;;;;;;5003812;28;20523;-85
2023/03/29 11:17:36;;;;;;;4.13;2.87;;;;;;;;;;4992337;28;20214;-86
2023/03/29 11:20:43;;;;;;;2.20;1.37;;;;;;;;;;4992184;28;20190;-85
2023/03/29 11:24:15;;;;;;;3.10;1.60;;;;;;;;;;4992762;28;20185;-85
2023/03/29 11:27:24;;;;;;;3.00;1.73;;;;;;;;;;5015696;28;20527;-86
2023/03/29 11:30:42;;;;;;;3.00;2.00;;;;;;;;;;4981309;28;20524;-86
2023/03/29 11:33:52;;;;;;;4.73;3.53;;;;;;;;;;4980833;28;20206;-86
2023/03/29 11:37:24;;;;;;;3.43;1.80;;;;;;;;;;4981303;28;20213;-86
2023/03/29 11:40:58;;;;;;;2.77;1.47;;;;;;;;;;4992022;28;20194;-86
2023/03/29 11:44:10;;;;;;;6.13;1.33;;;;;;;;;;5002926;28;20177;-86
2023/03/29 11:47:19;;;;;;;1.93;1.10;;;;;;;;;;4981102;28;20186;-85
2023/03/29 11:50:45;;;;;;;3.77;1.40;;;;;;;;;;4991802;28;20194;-85
2023/03/29 11:54:00;;;;;;;1.60;1.20;;;;;;;;;;4980757;28;20182;-85
2023/03/29 11:57:12;;;;;;;2.63;1.73;;;;;;;;;;4980780;28;20670;-85
2023/03/29 12:00:35;;;;;;;3.20;1.30;;;;;;;;;;4980847;28;20519;-85
2023/03/29 12:03:45;;;;;;;4.03;1.13;;;;;;;;;;4991681;28;20186;-85
2023/03/29 12:07:13;;;;;;;2.20;1.33;;;;;;;;;;4990230;28;20661;-86
2023/03/29 12:10:22;;;;;;;2.43;1.00;;;;;;;;;;4991633;28;20194;-85
2023/03/29 12:13:35;;;;;;;2.27;1.20;;;;;;;;;;4991117;28;20535;-85
2023/03/29 12:16:47;;;;;;;1.50;1.10;;;;;;;;;;4991557;28;20189;-85
2023/03/29 12:20:05;;;;;;;1.77;1.07;;;;;;;;;;4980814;28;20225;-85
2023/03/29 12:23:15;;;;;;;4.23;1.40;;;;;;;;;;4991341;28;20181;-85
2023/03/29 12:26:33;;;;;;;2.83;1.07;;;;;;;;;;4991049;28;20657;-85
2023/03/29 12:30:06;;;;;;;1.40;1.00;;;;;;;;;;4990858;28;20694;-86
2023/03/29 12:33:42;;;;;;;1.67;0.90;;;;;;;;;;4979882;28;20189;-86
2023/03/29 12:37:22;;;;;;;2.17;1.10;;;;;;;;;;5013611;28;20209;-85
2023/03/29 12:41:11;;;;;;;1.70;1.10;;;;;;;;;;4977513;28;20295;-87
2023/03/29 12:44:34;;;;;;;7.23;1.63;;;;;;;;;;5008756;28;20181;-84
2023/03/29 12:47:52;;;;;;;2.40;1.40;;;;;;;;;;5000261;28;20197;-83
2023/03/29 12:51:00;;;;;;;2.80;2.03;;;;;;;;;;4979579;28;20189;-86
2023/03/29 12:54:18;;;;;;;8.03;5.00;;;;;;;;;;4979659;28;20189;-86
2023/03/29 12:57:37;;;;;;;5.50;2.40;;;;;;;;;;4979556;28;20209;-86
2023/03/29 13:00:43;;;;;;;2.87;1.50;;;;;;;;;;5003008;28;20186;-87
2023/03/29 13:03:50;;;;;;;2.70;1.40;;;;;;;;;;4980349;28;20209;-87
2023/03/29 13:07:05;;;;;;;5.27;1.40;;;;;;;;;;5002272;28;20190;-83
2023/03/29 13:10:29;;;;;;;8.30;1.70;;;;;;;;;;4993301;28;20193;-81
2023/03/29 13:13:36;;;;;;;2.80;1.00;;;;;;;;;;4996474;28;20182;-84
2023/03/29 13:16:42;;;;;;;23.27;2.80;;;;;;;;;;4995865;28;20185;-83
2023/03/29 13:20:16;;;;;;;4.33;1.10;;;;;;;;;;4988206;28;20213;-86
2023/03/29 13:23:41;;;;;;;2.97;1.20;;;;;;;;;;5011968;28;20189;-86
2023/03/29 13:27:11;;;;;;;1.90;1.20;;;;;;;;;;4986811;28;20190;-85
2023/03/29 13:30:37;;;;;;;4.73;1.47;;;;;;;;;;4996702;28;20634;-86
2023/03/29 13:33:59;;;;;;;2.67;1.27;;;;;;;;;;4995802;28;20190;-86
2023/03/29 13:37:26;;;;;;;3.63;1.43;;;;;;;;;;4995797;28;20635;-86
2023/03/29 13:40:41;;;;;;;2.33;1.33;;;;;;;;;;4985384;28;20190;-86
2023/03/29 13:43:46;;;;;;;2.63;1.30;;;;;;;;;;5019982;28;20289;-86
2023/03/29 13:47:03;;;;;;;3.93;1.10;;;;;;;;;;5008127;28;20177;-86
2023/03/29 13:50:17;;;;;;;2.53;1.10;;;;;;;;;;4996004;28;20219;-86
2023/03/29 13:53:31;;;;;;;3.40;1.60;;;;;;;;;;5006429;28;20185;-86
2023/03/29 13:56:55;;;;;;;2.53;1.17;;;;;;;;;;5006594;28;20182;-86
2023/03/29 14:00:16;;;;;;;3.50;1.10;;;;;;;;;;4995786;28;20642;-86
2023/03/29 14:03:28;;;;;;;2.17;1.30;;;;;;;;;;5006112;28;20198;-86
2023/03/29 14:06:36;;;;;;;2.53;1.30;;;;;;;;;;5006900;28;20201;-86
2023/03/29 14:09:44;;;;;;;1.90;1.30;;;;;;;;;;4984131;28;20221;-86
2023/03/29 14:12:49;;;;;;;1.83;1.00;;;;;;;;;;5006902;28;20206;-87
2023/03/29 14:15:58;;;;;;;1.80;1.17;;;;;;;;;;4995647;28;20182;-86
2023/03/29 14:19:05;;;;;;;5.20;1.30;;;;;;;;;;4984619;28;20571;-87
2023/03/29 14:22:14;;;;;;;6.17;1.60;;;;;;;;;;4996184;28;20646;-86
2023/03/29 14:25:21;;;;;;;6.83;3.90;;;;;;;;;;5019147;28;20205;-87
2023/03/29 14:28:27;;;;;;;4.67;2.27;;;;;;;;;;5006063;28;20217;-87
2023/03/29 14:31:35;;;;;;;3.07;1.50;;;;;;;;;;4985340;28;20181;-86
2023/03/29 14:34:39;;;;;;;2.97;1.17;;;;;;;;;;4997688;28;20182;-86
2023/03/29 14:37:44;;;;;;;3.10;1.33;;;;;;;;;;5007452;28;20209;-86
2023/03/29 14:40:49;;;;;;;2.07;1.20;;;;;;;;;;5018935;28;20181;-87
2023/03/29 14:43:55;;;;;;;2.97;1.27;;;;;;;;;;5015857;28;20178;-85
2023/03/29 14:47:01;;;;;;;1.50;1.20;;;;;;;;;;4989444;28;20201;-87
2023/03/29 14:50:16;;;;;;;7.13;1.70;;;;;;;;;;4994053;28;20189;-86
2023/03/29 14:53:22;;;;;;;2.10;1.27;;;;;;;;;;5005352;28;20186;-87
2023/03/29 14:56:26;;;;;;;2.07;1.30;;;;;;;;;;4982089;28;20182;-88
2023/03/29 14:59:34;;;;;;;3.37;1.13;;;;;;;;;;4981305;28;20225;-87
2023/03/29 15:02:48;;;;;;;2.07;1.10;;;;;;;;;;4993074;28;20190;-86
2023/03/29 15:05:57;;;;;;;7.93;3.13;;;;;;;;;;4993618;28;20181;-88
2023/03/29 15:09:03;;;;;;;3.23;2.00;;;;;;;;;;4981812;28;20681;-88
2023/03/29 15:12:14;;;;;;;1.90;1.20;;;;;;;;;;4981499;28;20182;-88
2023/03/29 15:15:19;;;;;;;1.40;1.27;;;;;;;;;;5003576;28;20186;-88
2023/03/29 15:18:33;;;;;;;2.60;1.73;;;;;;;;;;4981130;28;20225;-88
2023/03/29 15:21:38;;;;;;;28.17;25.13;;;;;;;;;;4992198;28;20205;-88
2023/03/29 15:24:47;;;;;;;16.40;9.87;;;;;;;;;;4981153;28;20551;-88
2023/03/29 15:27:55;;;;;;;4.80;3.33;;;;;;;;;;4981044;28;20187;-88
2023/03/29 15:31:10;;;;;;;7.93;3.00;;;;;;;;;;4981163;28;20185;-88
2023/03/29 15:34:24;;;;;;;2.80;1.67;;;;;;;;;;4980791;28;20185;-88
2023/03/29 15:37:29;;;;;;;4.40;1.80;;;;;;;;;;4981559;28;20186;-88
2023/03/29 15:40:34;;;;;;;3.33;1.63;;;;;;;;;;4980730;28;20189;-88
2023/03/29 15:43:38;;;;;;;6.07;1.30;;;;;;;;;;4991970;28;20190;-88
2023/03/29 15:46:42;;;;;;;12.93;2.00;;;;;;;;;;5003612;28;20185;-88
2023/03/29 15:54:32;;;;;;;4.80;1.17;;;;;;;;;;5022765;28;20189;-88
2023/03/29 15:57:37;;;;;;;2.77;1.40;;;;;;;;;;4993112;28;20190;-88
2023/03/29 16:00:49;;;;;;;4.43;1.30;;;;;;;;;;4980234;28;20177;-88
2023/03/29 16:03:53;;;;;;;3.40;1.37;;;;;;;;;;4980477;28;20186;-88
2023/03/29 16:06:57;;;;;;;3.83;1.43;;;;;;;;;;4991338;28;20201;-88
2023/03/29 16:10:02;;;;;;;4.00;1.67;;;;;;;;;;4980398;28;20177;-89
2023/03/29 16:13:11;;;;;;;3.63;1.30;;;;;;;;;;4991671;28;20646;-88
2023/03/29 16:16:15;;;;;;;10.90;3.83;;;;;;;;;;4991741;28;20492;-88
2023/03/29 16:19:20;;;;;;;15.20;6.30;;;;;;;;;;4979771;28;20213;-88
2023/03/29 16:22:25;;;;;;;5.20;2.50;;;;;;;;;;4980228;28;20196;-88
2023/03/29 16:25:29;;;;;;;4.00;1.97;;;;;;;;;;4991547;28;20630;-88
2023/03/29 16:28:33;;;;;;;1.90;1.40;;;;;;;;;;4980121;28;20221;-88
2023/03/29 16:31:38;;;;;;;5.47;1.87;;;;;;;;;;4981780;28;20201;-88
2023/03/29 16:34:42;;;;;;;3.30;1.30;;;;;;;;;;5002111;28;20205;-88
2023/03/29 16:37:46;;;;;;;3.97;1.50;;;;;;;;;;4980135;28;20185;-88
2023/03/29 16:40:51;;;;;;;1.90;1.43;;;;;;;;;;4991538;28;20201;-86
2023/03/29 16:43:55;;;;;;;2.87;1.60;;;;;;;;;;4980907;28;20201;-87
2023/03/29 16:46:59;;;;;;;2.87;1.27;;;;;;;;;;4991531;28;20181;-87
2023/03/29 16:50:06;;;;;;;4.13;2.10;;;;;;;;;;4991927;28;20201;-86
2023/03/29 16:53:10;;;;;;;2.90;1.53;;;;;;;;;;4980297;28;20185;-87
2023/03/29 16:56:14;;;;;;;2.23;1.30;;;;;;;;;;5003614;28;20185;-87
2023/03/29 16:59:18;;;;;;;3.03;1.37;;;;;;;;;;4981061;28;20221;-87
2023/03/29 17:02:22;;;;;;;2.77;1.77;;;;;;;;;;4981001;28;20205;-87
2023/03/29 17:05:27;;;;;;;13.07;7.40;;;;;;;;;;5003399;28;20185;-87
2023/03/29 17:08:31;;;;;;;5.30;2.77;;;;;;;;;;4991478;28;20228;-87
2023/03/29 17:11:36;;;;;;;2.97;1.20;;;;;;;;;;5014478;28;20182;-87
2023/03/29 17:14:40;;;;;;;2.37;1.40;;;;;;;;;;4981212;28;20190;-87
2023/03/29 17:17:45;;;;;;;3.53;1.70;;;;;;;;;;4992826;28;20178;-87
2023/03/29 17:20:50;;;;;;;5.47;1.33;;;;;;;;;;4980727;28;20531;-87
2023/03/29 17:23:54;;;;;;;7.13;2.90;;;;;;;;;;4981682;28;20627;-87
2023/03/29 17:26:58;;;;;;;4.07;2.60;;;;;;;;;;4991843;28;20189;-87
2023/03/29 17:30:05;;;;;;;5.10;2.30;;;;;;;;;;4981500;28;20205;-87
2023/03/29 17:33:09;;;;;;;3.33;1.53;;;;;;;;;;4981541;28;20189;-88
2023/03/29 17:36:14;;;;;;;6.33;1.70;;;;;;;;;;5014754;28;20539;-87
2023/03/29 17:39:18;;;;;;;6.43;1.53;;;;;;;;;;4990971;28;20214;-88
2023/03/29 17:42:22;;;;;;;13.67;7.00;;;;;;;;;;5014371;28;20185;-88
2023/03/29 17:45:27;;;;;;;6.83;3.37;;;;;;;;;;4979874;28;20197;-87
2023/03/29 17:48:31;;;;;;;7.20;2.67;;;;;;;;;;4980536;28;20228;-88
2023/03/29 17:51:36;;;;;;;5.67;2.20;;;;;;;;;;4990454;28;20190;-88
2023/03/29 17:54:40;;;;;;;4.23;2.00;;;;;;;;;;5001407;28;20186;-88
2023/03/29 17:57:44;;;;;;;2.33;1.67;;;;;;;;;;4978986;28;20186;-88
2023/03/29 18:00:49;;;;;;;4.33;1.70;;;;;;;;;;4990787;28;20186;-87
2023/03/29 18:03:53;;;;;;;3.03;1.97;;;;;;;;;;4981674;28;20181;-87
2023/03/29 18:06:57;;;;;;;4.03;1.63;;;;;;;;;;5016781;28;20201;-88
2023/03/29 18:10:01;;;;;;;3.23;1.97;;;;;;;;;;4993481;28;20220;-88
2023/03/29 18:13:05;;;;;;;3.07;2.07;;;;;;;;;;4993256;28;20209;-88
2023/03/29 18:16:10;;;;;;;4.20;2.03;;;;;;;;;;4982933;28;20189;-88
2023/03/29 18:19:14;;;;;;;4.57;2.00;;;;;;;;;;4993441;28;20217;-88
2023/03/29 18:22:18;;;;;;;4.87;2.33;;;;;;;;;;4982720;28;20535;-88
2023/03/29 18:25:23;;;;;;;3.17;2.00;;;;;;;;;;4993524;28;20647;-88
2023/03/29 18:28:31;;;;;;;4.43;2.10;;;;;;;;;;4993177;28;20225;-88
2023/03/29 18:31:35;;;;;;;5.90;2.30;;;;;;;;;;4982202;28;20619;-88
2023/03/29 18:34:39;;;;;;;6.67;2.10;;;;;;;;;;4981905;28;20204;-88
2023/03/29 18:37:43;;;;;;;2.70;1.77;;;;;;;;;;5004526;28;20190;-88
2023/03/29 18:40:48;;;;;;;4.07;2.20;;;;;;;;;;4993409;28;20186;-88
2023/03/29 18:43:56;;;;;;;3.13;1.63;;;;;;;;;;4992792;28;20181;-88
2023/03/29 18:47:00;;;;;;;3.73;1.80;;;;;;;;;;4982012;28;20189;-88
2023/03/29 18:50:05;;;;;;;3.33;1.77;;;;;;;;;;4992859;28;20210;-88
2023/03/29 18:53:10;;;;;;;4.47;1.93;;;;;;;;;;4992972;28;20198;-88
2023/03/29 18:56:14;;;;;;;3.23;1.77;;;;;;;;;;4981869;28;20178;-88
2023/03/29 18:59:18;;;;;;;3.03;1.73;;;;;;;;;;4992755;28;20224;-88
2023/03/29 19:02:22;;;;;;;4.43;1.80;;;;;;;;;;4981923;28;20185;-88
2023/03/29 19:05:27;;;;;;;3.37;1.90;;;;;;;;;;4992616;28;20185;-88
2023/03/29 19:08:33;;;;;;;3.10;1.73;;;;;;;;;;5004681;28;20212;-88
2023/03/29 19:11:37;;;;;;;4.20;1.50;;;;;;;;;;4992908;28;20186;-88